Howard City, MI (49329)

7:00 PM EDT on September 03, 2015 (GMT -0400)
Ensley Center - Snow Farm | | Change Station
CLOSE
Current Station
Personal Weather Station
Location: Howard City, MI
Elevation: 982 ft
Nearby Weather Stations

Elev 982 ft 43.36 °N, 85.62 °W | Updated 12 minutes ago

Overcast
Overcast
81.3 °F
Feels Like 87 °F
N
2.7
Wind Variable Wind from West

Today
High -- | Low -- °F
--% Chance of Precip.
Yesterday
High -- | Low -- °F
Precip. -- in
7:07 AM 8:13 PM
Waning Gibbous, 66% visible
Pressure 29.89 in
Visibility 10.0 miles
Clouds Mostly Cloudy 2500 ft
Heat Index 87 °F
Dew Point 73 °F
Humidity 77%
Rainfall 0.47 in
Snow Depth Not available.
UV 0 out of 12
Pollen 9.10 out of 12
Air Quality Not available.
Flu Activity Not available.
METAR KRQB 032255Z AUTO 27007KT 10SM BKN025 22/19 A2989 RMK AO2 T02230192
Pressure 29.89 in
Visibility 10.0 miles
Clouds Mostly Cloudy 2500 ft
Heat Index 87 °F
Dew Point 73 °F
Humidity 77%
Rainfall 0.47 in
Snow Depth Not available.
UV 0 out of 12
Pollen 9.10 out of 12
Air Quality Not available.
Flu Activity Not available.
METAR KRQB 032255Z AUTO 27007KT 10SM BKN025 22/19 A2989 RMK AO2 T02230192

10-Day Weather Forecast

×

Almanac

Astronomy

Sep. 03, 2015 Rise Set
Actual Time
Civil Twilight
Nautical Twilight
Astronomical Twilight
Moon
Length of Visible Light
Length of Day
Tomorrow will be .
, % of the Moon is Illuminated

Today's Extremes

State Highs State Lows

Community

WunderPhotos

Upload Photos

1,852,058 photos uploaded!

WunderBlogs® & News

Nearby

Air Quality

  Air Quality AQ Index Pollutant
Not available.

Snow Depth

Station Depth Elevation

Earthquake Activity

City Distance Mag. Time & Date
Minimum magnitude displayed is 2.5.

Coastal Water Temperatures

Place Temperature

Stations

Nearby Weather Stations

Station Location Temp. Windchill Dew Point Humidity Wind Precip. Elev Updated Type